Time;durP1;ratioP1;P1;durP2;ratioP2;P2;SDS_P1;SDS_P2;PMS_P1;PMS_P2;Temp;Humidity;BMP_temperature;BMP_pressure;BME280_temperature;BME280_humidity;BME280_pressure;Samples;Min_cycle;Max_cycle;Signal;HPM_P1;HPM_P2
2023/12/11 00:01:37;;;;;;;9.17;2.03;;;;;;;-141.84;100.00;119224.81;5029230;28;20264;-67
2023/12/11 00:04:07;;;;;;;8.17;2.23;;;;;;;-141.84;100.00;119224.81;5029326;28;20321;-66
2023/12/11 00:06:36;;;;;;;5.13;2.00;;;;;;;-141.84;100.00;119224.81;4990993;28;20286;-68
2023/12/11 00:09:04;;;;;;;4.73;1.90;;;;;;;-141.84;100.00;119222.75;5004519;28;20230;-67
2023/12/11 00:11:33;;;;;;;8.17;2.00;;;;;;;-141.84;100.00;118689.38;5010603;28;20223;-67
2023/12/11 00:14:01;;;;;;;9.60;2.20;;;;;;;-141.84;100.00;119222.75;5009735;28;20620;-67
2023/12/11 00:16:30;;;;;;;7.30;1.90;;;;;;;-141.84;100.00;119222.75;5009734;28;20661;-67
2023/12/11 00:18:59;;;;;;;8.70;3.13;;;;;;;-141.84;100.00;117889.44;5009897;28;20258;-66
2023/12/11 00:21:29;;;;;;;4.57;2.03;;;;;;;-141.84;100.00;118689.38;5012257;28;20703;-67
2023/12/11 00:23:57;;;;;;;4.30;1.70;;;;;;;-141.84;100.00;117889.44;5013560;28;20563;-67
2023/12/11 00:26:26;;;;;;;5.07;1.63;;;;;;;-141.84;100.00;117089.69;5014433;28;20237;-67
2023/12/11 00:28:55;;;;;;;4.97;2.03;;;;;;;-141.84;100.00;115490.59;5015953;28;20317;-67
2023/12/11 00:31:23;;;;;;;4.80;1.57;;;;;;;-141.84;100.00;116023.56;5033357;28;20225;-66
2023/12/11 00:33:52;;;;;;;6.20;2.10;;;;;;;-141.84;100.00;112028.13;5013429;28;20246;-67
2023/12/11 00:36:20;;;;;;;4.13;1.50;;;;;;;-141.84;100.00;112028.13;5013651;28;20234;-67
2023/12/11 00:38:50;;;;;;;5.10;1.80;;;;;;;-141.84;100.00;110164.91;5022114;28;20605;-67
2023/12/11 00:41:19;;;;;;;3.70;1.70;;;;;;;-141.84;100.00;110431.03;5031794;28;20869;-66
2023/12/11 00:43:49;;;;;;;3.03;1.20;;;;;;;-141.84;100.00;112294.34;5013246;28;20418;-66
2023/12/11 00:46:21;;;;;;;6.20;2.10;;;;;;;-141.84;100.00;110963.31;5013208;28;20322;-65
2023/12/11 00:48:50;;;;;;;5.33;1.60;;;;;;;-141.84;100.00;109898.81;5013436;28;20305;-65
2023/12/11 00:51:21;;;;;;;4.13;1.63;;;;;;;-141.84;100.00;110164.91;5013358;28;20229;-66
2023/12/11 00:53:51;;;;;;;4.67;1.60;;;;;;;-141.84;100.00;111229.50;5013680;28;20184;-66
2023/12/11 00:56:19;;;;;;;5.17;1.50;;;;;;;-141.84;100.00;111229.50;5013436;28;20941;-66
2023/12/11 00:58:48;;;;;;;4.33;1.70;;;;;;;-141.84;100.00;105909.34;5014274;28;20328;-67
2023/12/11 01:01:16;;;;;;;4.50;1.40;;;;;;;-141.84;100.00;106441.06;5017991;28;20254;-65
2023/12/11 01:03:45;;;;;;;2.83;1.30;;;;;;;-141.84;100.00;112294.34;4993393;28;20227;-66
2023/12/11 01:06:14;;;;;;;5.13;1.60;;;;;;;-141.84;100.00;113625.81;4993385;28;20301;-66
2023/12/11 01:08:43;;;;;;;5.90;1.37;;;;;;;-141.84;100.00;114691.31;5001173;28;20226;-66
2023/12/11 01:11:13;;;;;;;3.77;1.50;;;;;;;-141.84;100.00;112028.13;5012717;28;20639;-66
2023/12/11 01:13:41;;;;;;;3.10;1.30;;;;;;;-141.84;100.00;108302.56;5012783;28;20313;-66
2023/12/11 01:16:10;;;;;;;2.80;1.30;;;;;;;-141.84;100.00;110164.91;5012525;28;20601;-67
2023/12/11 01:18:38;;;;;;;3.40;1.37;;;;;;;-141.84;100.00;112560.63;5012790;28;20232;-67
2023/12/11 01:21:07;;;;;;;4.70;1.30;;;;;;;-141.84;100.00;110431.03;5012395;28;20737;-66
2023/12/11 01:23:36;;;;;;;3.30;1.40;;;;;;;-141.84;100.00;104846.16;5012876;28;20816;-66
2023/12/11 01:26:05;;;;;;;2.20;1.20;;;;;;;-141.84;100.00;105909.34;5012387;28;20231;-67
2023/12/11 01:28:35;;;;;;;3.10;1.27;;;;;;;-141.84;100.00;109100.59;5012284;28;20701;-67
2023/12/11 01:31:04;;;;;;;3.53;1.03;;;;;;;-141.84;100.00;105111.94;5012270;28;20872;-67
2023/12/11 01:33:32;;;;;;;2.37;1.00;;;;;;;-141.84;100.00;103251.88;5011663;28;20330;-67
2023/12/11 01:36:01;;;;;;;3.33;1.10;;;;;;;-141.84;100.00;102455.00;5012423;28;20256;-66
2023/12/11 01:38:29;;;;;;;2.13;0.93;;;;;;;-141.84;100.00;105377.72;5011719;28;20659;-67
2023/12/11 01:40:58;;;;;;;1.73;0.90;;;;;;;-141.84;100.00;104048.94;5012102;28;20222;-66
2023/12/11 01:43:26;;;;;;;2.20;1.10;;;;;;;-141.84;100.00;100861.66;5012258;28;20287;-67
2023/12/11 01:46:04;;;;;;;1.87;1.33;;;;;;;-141.84;100.00;107238.72;5011881;28;20305;-67
2023/12/11 01:48:33;;;;;;;1.80;1.20;;;;;;;-141.84;100.00;108036.56;5012338;28;20304;-67
2023/12/11 01:51:02;;;;;;;3.13;1.40;;;;;;;-141.84;100.00;111495.69;5012212;28;20282;-66
2023/12/11 01:53:32;;;;;;;3.43;1.13;;;;;;;-141.84;100.00;114424.91;5012992;28;20198;-66
2023/12/11 01:56:01;;;;;;;1.60;1.00;;;;;;;-141.84;100.00;114957.72;5011633;28;20305;-66
2023/12/11 01:58:30;;;;;;;3.43;1.50;;;;;;;-141.84;100.00;116556.59;4993848;28;20287;-66
2023/12/11 02:01:00;;;;;;;4.40;1.20;;;;;;;-141.84;100.00;117889.44;5030264;28;20232;-67
2023/12/11 02:03:29;;;;;;;2.53;1.10;;;;;;;-141.84;100.00;117889.44;5032113;28;20305;-66
2023/12/11 02:05:58;;;;;;;3.03;1.10;;;;;;;-141.84;100.00;116290.06;5032155;28;20226;-67
2023/12/11 02:08:27;;;;;;;4.30;1.00;;;;;;;-141.84;100.00;112028.13;5027268;28;20210;-66
2023/12/11 02:10:55;;;;;;;2.77;1.40;;;;;;;-141.84;100.00;107504.66;4996983;28;20223;-66
2023/12/11 02:13:24;;;;;;;3.33;1.40;;;;;;;-141.84;100.00;104048.94;4992079;28;20306;-66
2023/12/11 02:15:53;;;;;;;3.00;1.20;;;;;;;-141.84;100.00;101923.81;4992235;28;20314;-67
2023/12/11 02:18:23;;;;;;;3.20;1.23;;;;;;;-141.84;100.00;100065.22;4992254;28;20245;-67
2023/12/11 02:20:52;;;;;;;4.30;1.60;;;;;;;-141.84;100.00;102986.25;5006310;28;20261;-67
2023/12/11 02:23:28;;;;;;;2.40;1.77;;;;;;;-141.84;100.00;103517.56;5012200;28;20231;-66
2023/12/11 02:26:08;;;;;;;2.97;1.23;;;;;;;-141.84;100.00;100065.22;5011521;28;20317;-67
2023/12/11 02:28:37;;;;;;;2.60;1.20;;;;;;;-141.84;100.00;95024.81;5011518;28;20253;-66
2023/12/11 02:31:06;;;;;;;4.47;1.10;;;;;;;-141.84;100.00;96615.84;5030896;28;20741;-67
2023/12/11 02:33:35;;;;;;;1.87;0.93;;;;;;;-141.84;100.00;96350.63;5016533;28;20231;-66
2023/12/11 02:36:05;;;;;;;1.43;0.80;;;;;;;-141.84;100.00;93964.47;5011904;28;20687;-67
2023/12/11 02:38:33;;;;;;;2.30;1.20;;;;;;;-141.84;100.00;95555.09;5018692;28;20236;-67
2023/12/11 02:41:02;;;;;;;2.07;1.10;;;;;;;-141.84;100.00;93964.47;5031697;28;20237;-68
2023/12/11 02:43:32;;;;;;;2.03;1.10;;;;;;;-141.84;100.00;97676.88;5031550;28;20299;-67
2023/12/11 02:46:02;;;;;;;2.83;1.10;;;;;;;-141.84;100.00;98472.84;5031644;28;20644;-67
2023/12/11 02:48:32;;;;;;;2.10;0.93;;;;;;;-141.84;100.00;97411.59;5031925;28;20237;-67
2023/12/11 02:51:01;;;;;;;2.17;1.13;;;;;;;-141.84;100.00;99268.97;5032247;28;20644;-67
2023/12/11 02:53:30;;;;;;;3.43;1.23;;;;;;;-141.84;100.00;105111.94;5022377;28;20207;-67
2023/12/11 02:55:58;;;;;;;2.57;1.10;;;;;;;-141.84;100.00;104314.66;4992976;28;20318;-65
2023/12/11 02:58:27;;;;;;;3.07;1.20;;;;;;;-141.84;100.00;103783.25;4992046;28;20238;-66
2023/12/11 03:00:57;;;;;;;2.73;1.50;;;;;;;-141.84;100.00;105643.53;5029588;28;20735;-67
2023/12/11 03:03:25;;;;;;;5.33;1.13;;;;;;;-141.84;100.00;103517.56;5031834;28;20370;-67
2023/12/11 03:05:54;;;;;;;3.57;1.37;;;;;;;-141.84;100.00;100330.69;5030479;28;20253;-67
2023/12/11 03:08:22;;;;;;;3.10;1.27;;;;;;;-141.84;100.00;95555.09;5026326;28;20203;-67
2023/12/11 03:10:51;;;;;;;4.47;1.27;;;;;;;-141.84;100.00;88402.22;4996641;28;20223;-67
2023/12/11 03:13:19;;;;;;;3.20;1.33;;;;;;;-141.84;100.00;88666.94;4990760;28;20297;-66
2023/12/11 03:15:48;;;;;;;1.87;1.10;;;;;;;-141.84;100.00;88931.63;4994301;28;20218;-67
2023/12/11 03:18:18;;;;;;;3.43;1.20;;;;;;;-141.84;100.00;87079.03;5011021;28;20238;-67
2023/12/11 03:20:47;;;;;;;4.97;1.50;;;;;;;-141.84;100.00;85756.25;5010832;28;20207;-67
2023/12/11 03:23:15;;;;;;;3.97;1.27;;;;;;;-141.84;100.00;88402.22;5010737;28;20321;-67
2023/12/11 03:25:44;;;;;;;4.20;1.30;;;;;;;-141.84;100.00;87872.91;5010445;28;20235;-67
2023/12/11 03:28:12;;;;;;;3.57;1.10;;;;;;;-141.84;100.00;89990.66;5010505;28;20265;-67
2023/12/11 03:30:41;;;;;;;3.63;1.30;;;;;;;-141.84;100.00;77828.72;5026885;28;20265;-68
2023/12/11 03:33:10;;;;;;;4.43;1.27;;;;;;;-141.84;100.00;80997.84;5024155;28;20226;-66
2023/12/11 03:35:40;;;;;;;2.23;1.10;;;;;;;-141.84;100.00;77828.72;5011058;28;20213;-67
2023/12/11 03:38:09;;;;;;;5.00;1.40;;;;;;;-141.84;100.00;78356.72;5012989;28;20228;-66
2023/12/11 03:40:37;;;;;;;2.87;1.33;;;;;;;-141.84;100.00;78620.75;5029933;28;20321;-66
2023/12/11 03:43:06;;;;;;;2.90;1.13;;;;;;;-141.84;99.25;71497.94;5029798;28;20234;-65
2023/12/11 03:45:34;;;;;;;4.40;1.50;;;;;;;-141.84;97.87;65966.75;5029744;28;20638;-64
2023/12/11 03:48:03;;;;;;;3.80;1.07;;;;;;;-141.84;97.98;65703.56;5029749;28;20195;-65
2023/12/11 03:50:32;;;;;;;3.97;1.20;;;;;;;-141.84;97.63;64387.81;5007683;28;20207;-64
2023/12/11 03:53:02;;;;;;;2.10;0.93;;;;;;;-141.84;95.40;55189.84;4990364;28;20227;-64
2023/12/11 03:55:30;;;;;;;3.80;1.40;;;;;;;-141.84;95.48;54664.88;4992869;28;20287;-64
2023/12/11 03:57:59;;;;;;;2.87;1.33;;;;;;;-141.84;95.38;54140.00;4996969;28;20314;-65
2023/12/11 04:00:28;;;;;;;4.47;1.30;;;;;;;-141.84;95.13;52828.09;5026617;28;20233;-66
2023/12/11 04:02:56;;;;;;;3.10;1.23;;;;;;;-141.84;93.88;47322.81;5016642;28;20229;-67
2023/12/11 04:05:25;;;;;;;5.07;1.50;;;;;;;-141.84;91.92;36502.59;5017052;28;20718;-67
2023/12/11 04:07:54;;;;;;;2.20;1.10;;;;;;;-141.84;91.84;33713.47;5016302;28;20237;-66
2023/12/11 04:10:24;;;;;;;2.53;1.50;;;;;;;-141.84;92.98;42552.84;5016526;28;20229;-67
2023/12/11 04:12:52;;;;;;;3.93;1.37;;;;;;;-141.84;93.24;43133.44;5014664;28;20230;-68
2023/12/11 04:15:21;;;;;;;2.87;1.10;;;;;;;-141.84;92.76;39299.84;5016381;28;20230;-67
2023/12/11 04:17:49;;;;;;;3.50;1.30;;;;;;;-141.84;93.32;42610.09;5010309;28;20210;-66
2023/12/11 04:20:18;;;;;;;2.93;1.17;;;;;;;-141.84;94.99;50467.75;5007268;28;20214;-68
2023/12/11 04:22:46;;;;;;;6.57;1.30;;;;;;;-141.84;95.76;54927.34;5016394;28;20313;-67
2023/12/11 04:25:15;;;;;;;4.60;1.40;;;;;;;-141.84;97.35;61757.66;5016457;28;20323;-66
2023/12/11 04:27:45;;;;;;;3.67;1.20;;;;;;;-141.84;96.31;57815.66;5016209;28;20241;-67
2023/12/11 04:30:14;;;;;;;3.33;1.20;;;;;;;-141.84;95.35;53352.78;5014998;28;20222;-67
2023/12/11 04:32:43;;;;;;;5.50;1.67;;;;;;;-141.84;94.83;50992.13;5016831;28;20317;-67
2023/12/11 04:35:12;;;;;;;5.60;1.40;;;;;;;-141.84;95.29;51778.88;5016212;28;20269;-66
2023/12/11 04:37:41;;;;;;;3.57;1.17;;;;;;;-141.84;96.78;59129.22;5016350;28;20615;-67
2023/12/11 04:40:10;;;;;;;7.43;1.60;;;;;;;-141.84;95.34;53615.19;5035289;28;20234;-66
2023/12/11 04:42:39;;;;;;;5.63;1.43;;;;;;;-141.84;96.27;55977.41;5036018;28;20854;-67
2023/12/11 04:45:10;;;;;;;4.63;1.20;;;;;;;-141.84;97.38;60706.06;5035972;28;20212;-67
2023/12/11 04:47:39;;;;;;;6.40;1.30;;;;;;;-141.84;98.83;67809.63;4999731;28;20215;-66
2023/12/11 04:50:08;;;;;;;5.30;1.77;;;;;;;-141.84;99.89;71497.94;4996653;28;20231;-67
2023/12/11 04:52:37;;;;;;;3.83;1.50;;;;;;;-141.84;98.47;67546.31;4996820;28;20362;-66
2023/12/11 04:55:06;;;;;;;3.73;1.40;;;;;;;-141.84;96.61;59654.75;4996959;28;20235;-67
2023/12/11 04:57:35;;;;;;;8.27;1.50;;;;;;;-141.84;94.67;50205.56;5002849;28;20222;-67
2023/12/11 05:00:05;;;;;;;5.00;1.60;;;;;;;-141.84;94.06;47584.78;5016275;28;20546;-67
2023/12/11 05:02:34;;;;;;;5.67;1.30;;;;;;;-141.84;93.94;45489.41;5016757;28;20234;-67
2023/12/11 05:05:03;;;;;;;5.07;1.30;;;;;;;-141.84;93.54;41365.34;5015836;28;20226;-67
2023/12/11 05:07:32;;;;;;;7.20;2.13;;;;;;;-141.84;94.24;46798.88;5013073;28;20234;-66
2023/12/11 05:10:00;;;;;;;6.40;1.40;;;;;;;-141.84;94.18;45489.41;5012835;28;20226;-67
2023/12/11 05:12:29;;;;;;;5.50;1.60;;;;;;;-141.84;95.67;52828.09;5013339;28;20223;-67
2023/12/11 05:14:59;;;;;;;5.57;1.47;;;;;;;-141.84;95.88;55189.84;5013061;28;20285;-66
2023/12/11 05:17:28;;;;;;;7.80;1.90;;;;;;;-141.84;95.67;53352.78;5005305;28;20195;-66
2023/12/11 05:19:59;;;;;;;5.57;2.07;;;;;;;-141.84;97.48;61231.81;5000609;28;20257;-67
2023/12/11 05:22:28;;;;;;;5.13;1.77;;;;;;;-141.84;97.46;61494.72;5012975;28;20230;-67
2023/12/11 05:24:56;;;;;;;4.10;1.63;;;;;;;-141.84;96.74;58603.75;5012745;28;20659;-67
2023/12/11 05:27:25;;;;;;;6.80;3.70;;;;;;;-141.84;97.08;60443.22;5012801;28;20300;-67
2023/12/11 05:29:53;;;;;;;7.90;3.70;;;;;;;-141.84;94.88;50205.56;5012499;28;20234;-66
2023/12/11 05:32:22;;;;;;;4.50;1.80;;;;;;;-141.84;95.24;52565.75;5006108;28;21011;-67
2023/12/11 05:34:50;;;;;;;5.40;1.27;;;;;;;-141.84;93.76;43918.63;4992862;28;20235;-66
2023/12/11 05:37:20;;;;;;;6.87;1.60;;;;;;;-141.84;92.46;39385.63;5002564;28;20586;-67
2023/12/11 05:39:49;;;;;;;9.33;1.83;;;;;;;-141.84;91.73;32073.97;5028552;28;20230;-66
2023/12/11 05:42:37;;;;;;;3.73;1.77;;;;;;;-141.84;91.15;30832.56;5016120;28;20235;-66
2023/12/11 05:45:08;;;;;;;3.53;1.40;;;;;;;-141.84;92.39;34963.94;4992471;28;20211;-66
2023/12/11 05:47:36;;;;;;;3.77;1.40;;;;;;;-141.84;93.38;41953.94;4993378;28;20756;-66
2023/12/11 05:50:06;;;;;;;4.20;1.50;;;;;;;-141.84;91.92;33593.13;5007181;28;20729;-67
2023/12/11 05:52:36;;;;;;;8.17;1.63;;;;;;;-141.84;91.37;30757.16;5012349;28;20231;-67
2023/12/11 05:55:05;;;;;;;7.07;1.73;;;;;;;-141.84;92.74;37039.44;5012203;28;20327;-67
2023/12/11 05:57:34;;;;;;;4.47;1.63;;;;;;;-141.84;94.44;46536.97;5012490;28;20322;-67
2023/12/11 06:00:03;;;;;;;8.00;1.57;;;;;;;-141.84;95.04;49943.41;5024152;28;20206;-67
2023/12/11 06:02:32;;;;;;;5.30;1.70;;;;;;;-141.84;95.48;52828.09;5009804;28;20205;-66
2023/12/11 06:05:01;;;;;;;6.30;1.30;;;;;;;-141.84;95.74;54402.44;4999675;28;20226;-67
2023/12/11 06:07:29;;;;;;;4.83;1.50;;;;;;;-141.84;96.64;58078.34;5011671;28;20277;-67
2023/12/11 06:10:00;;;;;;;4.77;2.10;;;;;;;-141.84;97.11;59917.56;5012157;28;20261;-67
2023/12/11 06:12:28;;;;;;;4.63;1.60;;;;;;;-141.84;98.21;64387.81;5012030;28;20245;-67
2023/12/11 06:14:57;;;;;;;4.23;1.50;;;;;;;-141.84;99.32;68599.69;5012030;28;20209;-66
2023/12/11 06:17:25;;;;;;;4.87;1.70;;;;;;;-141.84;99.97;71234.38;5004511;28;20195;-67
2023/12/11 06:19:54;;;;;;;3.57;1.40;;;;;;;-141.84;99.72;70180.31;4998425;28;20214;-67
2023/12/11 06:22:22;;;;;;;4.80;1.77;;;;;;;-141.84;98.30;65177.19;5011765;28;20619;-67
2023/12/11 06:24:51;;;;;;;4.87;1.80;;;;;;;-141.84;98.69;66493.19;5009237;28;20229;-65
2023/12/11 06:27:22;;;;;;;4.17;1.67;;;;;;;-141.84;99.52;69389.94;5010449;28;20227;-67
2023/12/11 06:29:51;;;;;;;4.43;1.70;;;;;;;-141.84;100.00;72816.03;5012116;28;20210;-66
2023/12/11 06:32:20;;;;;;;6.07;1.77;;;;;;;-141.84;100.00;73079.69;5009769;28;20238;-67
2023/12/11 06:34:49;;;;;;;7.00;1.90;;;;;;;-141.84;98.97;68336.31;4991891;28;20433;-69
2023/12/11 06:37:18;;;;;;;3.87;1.87;;;;;;;-141.84;99.20;69126.50;4993625;28;20231;-68
2023/12/11 06:39:48;;;;;;;5.93;1.80;;;;;;;-141.84;96.44;60706.06;4999301;28;20227;-67
2023/12/11 06:42:17;;;;;;;4.37;1.60;;;;;;;-141.84;94.63;48108.81;4991621;28;20800;-66
2023/12/11 06:44:47;;;;;;;4.40;1.83;;;;;;;-141.84;96.04;54664.88;4999126;28;20277;-66
2023/12/11 06:47:15;;;;;;;5.47;1.67;;;;;;;-141.84;96.69;58603.75;5011110;28;20226;-67
2023/12/11 06:49:46;;;;;;;6.73;1.60;;;;;;;-141.84;97.29;60443.22;5011288;28;20682;-67
2023/12/11 06:52:15;;;;;;;7.17;2.37;;;;;;;-141.84;95.54;53615.19;5011263;28;20250;-67
2023/12/11 06:54:44;;;;;;;5.60;1.47;;;;;;;-141.84;97.53;62283.53;5011050;28;20257;-66
2023/12/11 06:57:13;;;;;;;5.47;1.33;;;;;;;-141.84;99.37;70707.31;5001586;28;20223;-66
2023/12/11 06:59:41;;;;;;;5.73;1.80;;;;;;;-141.84;99.15;69126.50;4999891;28;20733;-67
2023/12/11 07:02:12;;;;;;;7.27;1.93;;;;;;;-141.84;100.00;76772.88;5010727;28;20254;-66
2023/12/11 07:04:42;;;;;;;9.30;1.90;;;;;;;-141.84;100.00;78620.75;5006076;28;20276;-67
2023/12/11 07:07:11;;;;;;;2.97;1.83;;;;;;;-141.84;100.00;75717.34;5010726;28;20260;-67
2023/12/11 07:09:40;;;;;;;4.40;1.83;;;;;;;-141.84;100.00;79677.06;5010789;28;20230;-67
2023/12/11 07:12:09;;;;;;;5.83;1.50;;;;;;;-141.84;100.00;85756.25;5010758;28;20206;-67
2023/12/11 07:14:37;;;;;;;2.87;1.60;;;;;;;-141.84;100.00;87872.91;5011234;28;20234;-67
2023/12/11 07:17:06;;;;;;;2.37;1.43;;;;;;;-141.84;100.00;87608.25;5005271;28;20223;-67
2023/12/11 07:19:36;;;;;;;7.67;2.53;;;;;;;-141.84;100.00;90785.09;4995243;28;20282;-67
2023/12/11 07:22:05;;;;;;;4.87;2.10;;;;;;;-141.84;100.00;93964.47;5010614;28;20235;-66
2023/12/11 07:24:34;;;;;;;4.67;1.63;;;;;;;-141.84;100.00;94759.69;5010760;28;20277;-67
2023/12/11 07:27:03;;;;;;;4.07;1.80;;;;;;;-141.84;100.00;97676.88;5010601;28;20241;-66
2023/12/11 07:29:31;;;;;;;4.07;2.47;;;;;;;-141.84;100.00;97676.88;5010553;28;20266;-67
2023/12/11 07:32:00;;;;;;;6.53;2.00;;;;;;;-141.84;100.00;95289.94;5009818;28;20265;-67
2023/12/11 07:34:29;;;;;;;3.70;1.57;;;;;;;-141.84;100.00;91049.97;5010364;28;20306;-67
2023/12/11 07:36:59;;;;;;;4.03;1.70;;;;;;;-141.84;100.00;88666.94;5010279;28;20253;-67
2023/12/11 07:39:28;;;;;;;6.90;1.93;;;;;;;-141.84;100.00;91579.72;5024013;28;20284;-67
2023/12/11 07:41:56;;;;;;;4.33;1.33;;;;;;;-141.84;100.00;91049.97;5002917;28;20222;-67
2023/12/11 07:44:25;;;;;;;5.07;1.80;;;;;;;-141.84;100.00;89990.66;4991358;28;20231;-67
2023/12/11 07:46:53;;;;;;;3.73;1.80;;;;;;;-141.84;100.00;82319.06;5001472;28;20314;-68
2023/12/11 07:49:22;;;;;;;5.23;1.83;;;;;;;-141.84;100.00;80205.34;5010319;28;20258;-67
2023/12/11 07:51:52;;;;;;;7.03;1.93;;;;;;;-141.84;100.00;76508.97;5010194;28;20222;-67
2023/12/11 07:54:25;;;;;;;3.40;1.70;;;;;;;-141.84;99.93;73870.81;5010586;28;20235;-67
2023/12/11 07:56:54;;;;;;;7.83;1.67;;;;;;;-141.84;99.81;73607.09;5010646;28;20230;-67
2023/12/11 07:59:22;;;;;;;4.17;1.30;;;;;;;-141.84;100.00;75189.69;5010835;28;20309;-67
2023/12/11 08:01:52;;;;;;;6.13;1.50;;;;;;;-141.84;98.34;69389.94;5009921;28;20577;-67
2023/12/11 08:04:20;;;;;;;7.00;1.80;;;;;;;-141.84;96.25;60968.94;5010107;28;20321;-68
2023/12/11 08:06:50;;;;;;;3.20;1.40;;;;;;;-141.84;94.62;51516.59;5010042;28;20233;-68
2023/12/11 08:09:18;;;;;;;6.23;1.60;;;;;;;-141.84;92.65;41302.00;5009789;28;20949;-67
2023/12/11 08:11:50;;;;;;;5.60;1.60;;;;;;;-141.84;90.62;31234.09;5010765;28;20209;-67
2023/12/11 08:14:18;;;;;;;3.97;1.50;;;;;;;-141.84;90.48;28927.41;5010435;28;20234;-68
2023/12/11 08:16:47;;;;;;;3.27;1.70;;;;;;;-141.84;90.39;30247.69;5007445;28;20226;-67
2023/12/11 08:19:15;;;;;;;5.67;1.63;;;;;;;-141.84;84.55;20027.25;4992487;28;20627;-67
2023/12/11 08:21:44;;;;;;;3.50;1.30;;;;;;;-141.84;86.50;21137.13;5010053;28;20234;-67
2023/12/11 08:24:13;;;;;;;7.40;1.37;;;;;;;-141.84;86.30;21163.56;5010527;28;20230;-67
2023/12/11 08:26:41;;;;;;;6.23;2.03;;;;;;;-141.84;85.88;20895.19;5010641;28;20206;-67
2023/12/11 08:29:12;;;;;;;6.87;6.00;;;;;;;-141.84;86.92;21350.59;5009533;28;20698;-67
2023/12/11 08:31:40;;;;;;;3.77;1.60;;;;;;;-141.84;87.60;22814.75;4999817;28;20314;-68
2023/12/11 08:34:09;;;;;;;3.60;1.77;;;;;;;-141.84;88.67;23921.38;4989908;28;20403;-68
2023/12/11 08:36:37;;;;;;;4.20;2.00;;;;;;;-141.84;88.77;24283.53;4990452;28;20254;-67
2023/12/11 08:39:07;;;;;;;4.40;1.60;;;;;;;-141.84;87.82;22936.78;5017485;28;20198;-68
2023/12/11 08:41:36;;;;;;;7.27;1.80;;;;;;;-141.84;86.18;21265.22;5030850;28;20202;-67
2023/12/11 08:44:05;;;;;;;4.33;1.17;;;;;;;-141.84;86.55;21244.88;5014473;28;20234;-67
2023/12/11 08:46:36;;;;;;;4.97;1.73;;;;;;;-141.84;86.57;21399.41;5013585;28;20230;-68
2023/12/11 08:49:05;;;;;;;6.27;1.80;;;;;;;-141.84;84.42;20141.06;5013160;28;20239;-67
2023/12/11 08:51:34;;;;;;;6.23;2.27;;;;;;;-141.84;83.51;19655.31;5013556;28;20227;-67
2023/12/11 08:54:02;;;;;;;6.83;1.97;;;;;;;-141.84;84.62;20045.53;5013328;28;20238;-67
2023/12/11 08:56:31;;;;;;;6.07;1.80;;;;;;;-141.84;84.08;19880.91;5014033;28;20238;-68
2023/12/11 08:59:00;;;;;;;4.50;1.77;;;;;;;-141.84;84.18;19929.69;5013269;28;20230;-67
2023/12/11 09:01:30;;;;;;;6.33;1.67;;;;;;;-141.84;84.62;20025.22;5012851;28;20780;-68
2023/12/11 09:04:01;;;;;;;5.77;1.70;;;;;;;-141.84;86.78;21458.38;5013338;28;20230;-67
2023/12/11 09:06:30;;;;;;;3.80;2.00;;;;;;;-141.84;85.88;20730.53;5013268;28;20767;-68
2023/12/11 09:08:58;;;;;;;6.63;1.67;;;;;;;-141.84;86.27;21082.25;5012979;28;20224;-67
2023/12/11 09:11:27;;;;;;;4.20;1.70;;;;;;;-141.84;87.53;22212.75;5013573;28;20221;-68
2023/12/11 09:13:56;;;;;;;5.60;1.60;;;;;;;-141.84;89.68;26677.06;5012987;28;20304;-67
2023/12/11 09:16:25;;;;;;;6.70;1.70;;;;;;;-141.84;90.80;30394.41;5012942;28;20734;-67
2023/12/11 09:18:53;;;;;;;3.10;1.60;;;;;;;-141.84;93.06;41725.03;4993352;28;20611;-67
2023/12/11 09:21:23;;;;;;;9.97;1.90;;;;;;;-141.84;94.98;52828.09;5012357;28;20281;-68
2023/12/11 09:23:52;;;;;;;4.97;1.77;;;;;;;-141.84;95.95;59654.75;5012626;28;20658;-69
2023/12/11 09:26:20;;;;;;;7.87;2.30;;;;;;;-141.84;94.78;52828.09;5013161;28;20318;-67
2023/12/11 09:28:49;;;;;;;5.23;2.00;;;;;;;-141.84;93.84;49681.28;4996639;28;20227;-67
2023/12/11 09:31:20;;;;;;;4.07;1.90;;;;;;;-141.84;95.06;54402.44;5012581;28;20233;-66
2023/12/11 09:33:49;;;;;;;6.33;2.13;;;;;;;-141.84;94.32;52041.16;5012217;28;20273;-68
2023/12/11 09:36:19;;;;;;;6.43;2.30;;;;;;;-141.84;93.74;49943.41;5012742;28;20230;-68
2023/12/11 09:38:49;;;;;;;5.60;2.03;;;;;;;-141.84;90.94;34372.31;5014577;28;20545;-68
2023/12/11 09:41:17;;;;;;;7.20;2.10;;;;;;;-141.84;90.47;32104.56;5012888;28;20238;-66
2023/12/11 09:43:48;;;;;;;8.43;2.40;;;;;;;-141.84;90.02;31150.53;5012197;28;20257;-67
2023/12/11 09:46:19;;;;;;;7.00;1.93;;;;;;;-141.84;85.85;21704.38;5012525;28;20867;-66
2023/12/11 09:48:49;;;;;;;6.33;2.00;;;;;;;-141.84;84.24;20248.78;5012448;28;20265;-67
2023/12/11 09:51:18;;;;;;;9.13;2.50;;;;;;;-141.84;84.83;20399.19;5012067;28;20308;-67
2023/12/11 09:53:49;;;;;;;6.70;1.83;;;;;;;-141.84;86.34;21708.47;5012198;28;20703;-67
2023/12/11 09:56:18;;;;;;;5.93;1.90;;;;;;;-141.84;85.37;20984.66;5012193;28;20740;-67
2023/12/11 09:58:47;;;;;;;4.90;1.87;;;;;;;-141.84;84.65;20368.72;5011948;28;20254;-66
2023/12/11 10:01:16;;;;;;;4.43;2.10;;;;;;;-141.84;84.97;20387.00;5012793;28;20226;-67
2023/12/11 10:03:45;;;;;;;3.27;1.83;;;;;;;-141.84;84.67;20376.84;5012249;28;20573;-67
2023/12/11 10:06:14;;;;;;;4.13;1.60;;;;;;;-141.84;79.56;19254.97;5012308;28;20226;-66
2023/12/11 10:08:52;;;;;;;5.70;1.83;;;;;;;-141.84;79.82;19230.59;5013292;28;20195;-67
2023/12/11 10:11:22;;;;;;;5.13;1.80;;;;;;;-141.84;76.74;19015.19;5012318;28;20214;-67
2023/12/11 10:13:51;;;;;;;4.37;1.60;;;;;;;-141.84;76.65;19049.75;5011764;28;20265;-67
2023/12/11 10:16:30;;;;;;;4.50;1.53;;;;;;;-141.84;76.86;19037.56;5011925;28;20232;-67
2023/12/11 10:19:00;;;;;;;3.80;1.40;;;;;;;-141.84;76.60;19023.34;4992460;28;20309;-68
2023/12/11 10:21:38;;;;;;;6.13;1.70;;;;;;;-141.84;78.47;19147.28;4992313;28;20657;-67
2023/12/11 10:24:13;;;;;;;3.80;1.60;;;;;;;-141.84;76.70;19017.25;4992949;28;20296;-68
2023/12/11 10:26:47;;;;;;;5.37;1.70;;;;;;;-141.84;76.05;19005.03;4992507;28;20249;-68
2023/12/11 10:29:21;;;;;;;3.33;1.80;;;;;;;-141.84;76.30;18988.78;4996679;28;21074;-67
2023/12/11 10:31:50;;;;;;;5.00;1.67;;;;;;;-141.84;75.20;18972.53;5011342;28;20891;-67
2023/12/11 10:34:19;;;;;;;4.03;1.53;;;;;;;-141.84;75.43;18960.34;5011422;28;20245;-67
2023/12/11 10:36:51;;;;;;;4.70;1.87;;;;;;;-141.84;73.08;18942.06;5011678;28;20348;-66
2023/12/11 10:39:22;;;;;;;6.03;1.70;;;;;;;-141.84;74.29;18968.47;5023690;28;20749;-67
2023/12/11 10:41:54;;;;;;;6.80;1.60;;;;;;;-141.84;76.28;19037.56;5031517;28;20300;-67
2023/12/11 10:44:24;;;;;;;2.97;1.47;;;;;;;-141.84;77.40;19068.03;5031606;28;20248;-67
2023/12/11 10:47:13;;;;;;;4.53;1.40;;;;;;;-141.84;78.38;19061.94;5016074;28;20227;-67
2023/12/11 10:49:42;;;;;;;3.70;1.30;;;;;;;-141.84;77.61;19066.00;5010838;28;20711;-66
2023/12/11 10:52:10;;;;;;;3.67;1.60;;;;;;;-141.84;77.85;19041.63;5011637;28;20227;-67
2023/12/11 10:54:41;;;;;;;5.00;1.40;;;;;;;-141.84;78.19;19104.59;5011527;28;20231;-67
2023/12/11 10:57:14;;;;;;;5.07;1.47;;;;;;;-141.84;77.07;19070.06;5011493;28;20823;-67
2023/12/11 10:59:45;;;;;;;3.43;1.40;;;;;;;-141.84;76.17;19009.09;5020317;28;20294;-67
2023/12/11 11:02:18;;;;;;;6.13;1.67;;;;;;;-141.84;76.82;19041.63;5031009;28;20327;-68
2023/12/11 11:04:47;;;;;;;5.22;1.40;;;;;;;-141.84;77.24;19086.31;5030078;28;20283;-67
2023/12/11 11:07:22;;;;;;;5.00;1.80;;;;;;;-141.84;76.49;19082.25;5030870;28;20300;-67
2023/12/11 11:10:00;;;;;;;3.57;1.33;;;;;;;-141.84;76.73;19090.38;5008358;28;20235;-68
2023/12/11 11:12:39;;;;;;;4.07;1.30;;;;;;;-141.84;76.89;19094.44;4991748;28;20721;-67
2023/12/11 11:15:09;;;;;;;5.50;1.40;;;;;;;-141.84;77.78;19102.56;4992066;28;20194;-67
2023/12/11 11:17:58;;;;;;;5.60;1.30;;;;;;;-141.84;78.92;19171.66;4993132;28;20250;-66
2023/12/11 11:20:27;;;;;;;3.83;1.50;;;;;;;-141.84;79.77;19187.91;4993798;28;20294;-66
2023/12/11 11:23:22;;;;;;;6.70;2.20;;;;;;;-141.84;79.82;19248.88;4992523;28;20603;-67